Time;durP1;ratioP1;P1;durP2;ratioP2;P2;SDS_P1;SDS_P2;PMS_P1;PMS_P2;Temp;Humidity;BMP_temperature;BMP_pressure;BME280_temperature;BME280_humidity;BME280_pressure;Samples;Min_cycle;Max_cycle;Signal;HPM_P1;HPM_P2
2022/01/20 00:00:19;;;;;;;;;;;21.20;31.80;;;;;;458541;259;2026;-43
2022/01/20 00:02:19;;;;;;;;;;;21.20;31.90;;;;;;458660;259;1702;-43
2022/01/20 00:04:26;;;;;;;;;;;21.10;31.90;;;;;;459095;260;1035;-43
2022/01/20 00:07:12;;;;;;;;;;;21.10;31.90;;;;;;458589;259;2563;-43
2022/01/20 00:09:08;;;;;;;;;;;21.10;31.90;;;;;;457751;260;1625;-43
2022/01/20 00:23:29;;;;;;;;;;;21.00;32.00;;;;;;458833;260;1109;-46
2022/01/20 00:27:39;;;;;;;;;;;21.00;32.00;;;;;;459274;260;1186;-46
2022/01/20 00:30:04;;;;;;;;;;;21.00;32.00;;;;;;458822;259;2275;-46
2022/01/20 00:32:02;;;;;;;;;;;21.00;32.10;;;;;;458052;260;2189;-46
2022/01/20 00:33:52;;;;;;;;;;;21.00;32.00;;;;;;458037;259;1646;-46
2022/01/20 00:38:09;;;;;;;;;;;21.00;32.10;;;;;;458887;260;1187;-46
2022/01/20 00:40:10;;;;;;;;;;;20.90;32.10;;;;;;459303;260;1103;-46
2022/01/20 00:42:12;;;;;;;;;;;20.90;32.10;;;;;;458809;260;1169;-46
2022/01/20 00:44:13;;;;;;;;;;;20.90;32.20;;;;;;458887;260;1243;-46
2022/01/20 00:46:14;;;;;;;;;;;20.90;32.20;;;;;;458864;260;1199;-46
2022/01/20 00:48:16;;;;;;;;;;;20.90;32.20;;;;;;458885;260;1228;-46
2022/01/20 00:50:17;;;;;;;;;;;20.90;32.20;;;;;;459231;260;1475;-46
2022/01/20 00:52:18;;;;;;;;;;;20.80;32.20;;;;;;459065;260;1231;-46
2022/01/20 00:54:19;;;;;;;;;;;20.90;32.20;;;;;;458901;260;1095;-45
2022/01/20 00:56:21;;;;;;;;;;;20.90;32.20;;;;;;458883;260;2206;-46
2022/01/20 00:58:22;;;;;;;;;;;20.90;32.30;;;;;;459033;260;1213;-46
2022/01/20 01:00:23;;;;;;;;;;;20.80;32.20;;;;;;458859;260;1324;-46
2022/01/20 01:02:25;;;;;;;;;;;20.80;32.30;;;;;;459048;260;1315;-46
2022/01/20 01:04:27;;;;;;;;;;;20.80;32.30;;;;;;459092;260;1116;-46
2022/01/20 01:06:40;;;;;;;;;;;20.80;32.30;;;;;;458770;259;2296;-46
2022/01/20 01:08:35;;;;;;;;;;;20.80;32.40;;;;;;458927;259;2073;-46
2022/01/20 01:10:38;;;;;;;;;;;20.70;32.30;;;;;;459274;260;1216;-46
2022/01/20 01:12:44;;;;;;;;;;;20.80;32.40;;;;;;458729;260;2206;-46
2022/01/20 01:14:44;;;;;;;;;;;20.70;32.40;;;;;;458750;259;1876;-46
2022/01/20 01:20:03;;;;;;;;;;;20.70;32.40;;;;;;458943;259;2205;-46
2022/01/20 01:21:14;;;;;;;;;;;20.70;32.40;;;;;;458822;260;2132;-46
2022/01/20 01:23:12;;;;;;;;;;;20.70;32.50;;;;;;458791;259;1386;-46
2022/01/20 01:25:15;;;;;;;;;;;20.70;32.50;;;;;;458877;260;1090;-45
2022/01/20 01:27:15;;;;;;;;;;;20.60;32.40;;;;;;458765;260;2347;-46
2022/01/20 01:29:33;;;;;;;;;;;20.60;32.40;;;;;;459306;260;1064;-46
2022/01/20 01:31:33;;;;;;;;;;;20.60;32.50;;;;;;458134;259;2115;-46
2022/01/20 01:33:34;;;;;;;;;;;20.60;32.50;;;;;;458829;259;2275;-45
2022/01/20 01:35:34;;;;;;;;;;;20.60;32.50;;;;;;458940;259;2071;-46
2022/01/20 01:38:23;;;;;;;;;;;20.60;32.40;;;;;;458886;259;2242;-46
2022/01/20 01:39:37;;;;;;;;;;;20.60;32.50;;;;;;457963;260;1863;-46
2022/01/20 01:41:38;;;;;;;;;;;20.60;32.40;;;;;;458893;259;1347;-46
2022/01/20 01:43:41;;;;;;;;;;;20.60;32.40;;;;;;459289;260;1023;-46
2022/01/20 01:45:41;;;;;;;;;;;20.60;32.50;;;;;;458991;259;2440;-46
2022/01/20 01:47:42;;;;;;;;;;;20.60;32.50;;;;;;458879;260;1189;-45
2022/01/20 01:49:44;;;;;;;;;;;20.60;32.50;;;;;;458864;260;1092;-46
2022/01/20 01:51:45;;;;;;;;;;;20.60;32.50;;;;;;458912;260;1566;-46
2022/01/20 01:53:46;;;;;;;;;;;20.60;32.50;;;;;;458897;260;1092;-46
2022/01/20 01:55:48;;;;;;;;;;;20.50;32.60;;;;;;459245;260;2131;-46
2022/01/20 01:57:49;;;;;;;;;;;20.60;32.60;;;;;;459249;260;1227;-46
2022/01/20 01:59:50;;;;;;;;;;;20.50;32.60;;;;;;458872;260;1089;-46
2022/01/20 02:01:52;;;;;;;;;;;20.60;32.60;;;;;;459251;260;1279;-46
2022/01/20 02:04:00;;;;;;;;;;;20.50;32.50;;;;;;458880;260;1254;-46
2022/01/20 02:06:17;;;;;;;;;;;20.60;32.60;;;;;;458707;259;2293;-46
2022/01/20 02:08:26;;;;;;;;;;;20.50;32.60;;;;;;458094;259;2299;-45
2022/01/20 02:19:43;;;;;;;;;;;20.50;32.70;;;;;;458918;260;1275;-46
2022/01/20 02:21:40;;;;;;;;;;;20.50;32.70;;;;;;458774;259;2284;-46
2022/01/20 02:23:42;;;;;;;;;;;20.50;32.60;;;;;;459062;260;1306;-46
2022/01/20 02:25:43;;;;;;;;;;;20.50;32.60;;;;;;458892;260;1089;-46
2022/01/20 02:27:44;;;;;;;;;;;20.50;32.60;;;;;;459077;260;1325;-46
2022/01/20 02:29:46;;;;;;;;;;;20.50;32.60;;;;;;459287;260;1050;-46
2022/01/20 02:31:47;;;;;;;;;;;20.50;32.60;;;;;;459035;260;1228;-46
2022/01/20 02:33:50;;;;;;;;;;;20.50;32.60;;;;;;458905;259;1798;-46
2022/01/20 02:35:50;;;;;;;;;;;20.50;32.60;;;;;;459021;260;2262;-46
2022/01/20 02:37:57;;;;;;;;;;;20.40;32.60;;;;;;458864;260;2122;-46
2022/01/20 02:40:26;;;;;;;;;;;20.50;32.70;;;;;;458639;259;2081;-46
2022/01/20 02:46:43;;;;;;;;;;;20.40;32.70;;;;;;459043;260;1607;-46
2022/01/20 02:48:44;;;;;;;;;;;20.40;32.70;;;;;;459135;260;1230;-45
2022/01/20 02:50:45;;;;;;;;;;;20.40;32.70;;;;;;458788;260;1235;-46
2022/01/20 02:52:47;;;;;;;;;;;20.40;32.60;;;;;;458948;260;1340;-46
2022/01/20 02:54:50;;;;;;;;;;;20.40;32.70;;;;;;459292;260;1251;-46
2022/01/20 02:56:49;;;;;;;;;;;20.40;32.70;;;;;;458860;260;2290;-46
2022/01/20 02:58:51;;;;;;;;;;;20.40;32.70;;;;;;459272;260;1209;-46
2022/01/20 03:00:52;;;;;;;;;;;20.40;32.70;;;;;;459259;260;1348;-46
2022/01/20 03:02:55;;;;;;;;;;;20.40;32.70;;;;;;458931;260;1359;-46
2022/01/20 03:04:54;;;;;;;;;;;20.40;32.70;;;;;;458891;259;2362;-46
2022/01/20 03:06:56;;;;;;;;;;;20.40;32.70;;;;;;458801;260;1258;-46
2022/01/20 03:08:57;;;;;;;;;;;20.40;32.70;;;;;;459054;260;1221;-45
2022/01/20 03:10:58;;;;;;;;;;;20.50;32.60;;;;;;459181;260;1181;-45
2022/01/20 03:13:00;;;;;;;;;;;20.40;32.60;;;;;;458903;259;1437;-46
2022/01/20 03:15:01;;;;;;;;;;;20.40;32.60;;;;;;459305;260;1085;-46
2022/01/20 03:17:02;;;;;;;;;;;20.50;32.60;;;;;;458977;260;2138;-46
2022/01/20 03:19:13;;;;;;;;;;;20.50;32.60;;;;;;459124;260;1183;-46
2022/01/20 03:21:15;;;;;;;;;;;20.50;32.60;;;;;;458977;260;1267;-46
2022/01/20 03:23:17;;;;;;;;;;;20.40;32.60;;;;;;459331;260;1069;-46
2022/01/20 03:25:18;;;;;;;;;;;20.40;32.60;;;;;;458930;260;1305;-46
2022/01/20 03:27:19;;;;;;;;;;;20.40;32.60;;;;;;458877;260;1289;-46
2022/01/20 03:29:21;;;;;;;;;;;20.40;32.70;;;;;;458924;260;1096;-45
2022/01/20 03:31:22;;;;;;;;;;;20.40;32.70;;;;;;458851;260;1531;-46
2022/01/20 03:33:23;;;;;;;;;;;20.40;32.60;;;;;;458906;260;1242;-46
2022/01/20 03:35:25;;;;;;;;;;;20.40;32.60;;;;;;458941;260;1213;-46
2022/01/20 03:37:29;;;;;;;;;;;20.40;32.60;;;;;;458951;260;2196;-46
2022/01/20 03:39:30;;;;;;;;;;;20.40;32.60;;;;;;458918;260;1080;-45
2022/01/20 03:41:31;;;;;;;;;;;20.40;32.60;;;;;;459283;259;1490;-46
2022/01/20 03:43:33;;;;;;;;;;;20.40;32.60;;;;;;459208;260;1255;-46
2022/01/20 03:45:34;;;;;;;;;;;20.40;32.70;;;;;;459122;260;1044;-46
2022/01/20 03:47:35;;;;;;;;;;;20.40;32.70;;;;;;459281;260;1581;-46
2022/01/20 03:49:40;;;;;;;;;;;20.40;32.70;;;;;;458981;260;1326;-46
2022/01/20 03:51:38;;;;;;;;;;;20.40;32.70;;;;;;458701;260;2119;-45
2022/01/20 03:53:39;;;;;;;;;;;20.40;32.70;;;;;;458889;260;1084;-46
2022/01/20 03:55:41;;;;;;;;;;;20.40;32.70;;;;;;459036;260;1047;-43
2022/01/20 03:57:42;;;;;;;;;;;20.40;32.80;;;;;;458872;260;2275;-46
2022/01/20 03:59:43;;;;;;;;;;;20.40;32.70;;;;;;458891;260;1266;-45
2022/01/20 04:01:45;;;;;;;;;;;20.40;32.60;;;;;;458900;260;1289;-45
2022/01/20 04:03:46;;;;;;;;;;;20.40;32.60;;;;;;458866;260;1121;-46
2022/01/20 04:05:56;;;;;;;;;;;20.40;32.70;;;;;;458863;260;1225;-46
2022/01/20 04:07:53;;;;;;;;;;;20.40;32.70;;;;;;458830;259;2289;-45
2022/01/20 04:09:54;;;;;;;;;;;20.40;32.70;;;;;;458889;260;1339;-46
2022/01/20 04:11:56;;;;;;;;;;;20.40;32.70;;;;;;458842;260;1329;-46
2022/01/20 04:13:57;;;;;;;;;;;20.40;32.60;;;;;;458869;260;1229;-46
2022/01/20 04:16:00;;;;;;;;;;;20.40;32.60;;;;;;459170;260;1302;-46
2022/01/20 04:18:02;;;;;;;;;;;20.40;32.60;;;;;;458807;260;2134;-46
2022/01/20 04:20:02;;;;;;;;;;;20.40;32.50;;;;;;459057;259;2212;-45
2022/01/20 04:22:03;;;;;;;;;;;20.40;32.60;;;;;;459164;260;1359;-46
2022/01/20 04:24:05;;;;;;;;;;;20.40;32.60;;;;;;458899;260;1091;-46
2022/01/20 04:26:06;;;;;;;;;;;20.50;32.60;;;;;;458977;260;1063;-46
2022/01/20 04:28:08;;;;;;;;;;;20.40;32.60;;;;;;459058;260;1203;-46
2022/01/20 04:30:09;;;;;;;;;;;20.40;32.60;;;;;;458892;260;1043;-46
2022/01/20 04:32:10;;;;;;;;;;;20.40;32.70;;;;;;459273;260;1100;-46
2022/01/20 04:34:12;;;;;;;;;;;20.40;32.70;;;;;;458886;260;1055;-46
2022/01/20 04:36:13;;;;;;;;;;;20.40;32.70;;;;;;458879;260;1147;-46
2022/01/20 04:38:14;;;;;;;;;;;20.40;32.70;;;;;;459232;256;2193;-45
2022/01/20 04:40:16;;;;;;;;;;;20.30;32.70;;;;;;459128;260;1138;-46
2022/01/20 04:42:18;;;;;;;;;;;20.40;32.80;;;;;;458957;260;1411;-46
2022/01/20 04:44:31;;;;;;;;;;;20.40;32.60;;;;;;458840;259;2430;-46
2022/01/20 04:46:28;;;;;;;;;;;20.60;32.30;;;;;;458516;259;2393;-46
2022/01/20 04:48:29;;;;;;;;;;;20.80;32.00;;;;;;458799;259;2305;-47
2022/01/20 04:57:23;;;;;;;;;;;21.30;31.30;;;;;;458874;260;2134;-45
2022/01/20 04:59:25;;;;;;;;;;;21.30;31.10;;;;;;459303;260;1073;-45
2022/01/20 05:01:26;;;;;;;;;;;21.40;31.00;;;;;;459191;260;1060;-46
2022/01/20 05:03:27;;;;;;;;;;;21.50;31.00;;;;;;459112;260;1093;-46
2022/01/20 05:05:29;;;;;;;;;;;21.50;30.90;;;;;;459020;260;1178;-46
2022/01/20 05:07:30;;;;;;;;;;;21.60;30.90;;;;;;459177;260;1087;-46
2022/01/20 05:09:32;;;;;;;;;;;21.60;30.80;;;;;;459266;260;1337;-46
2022/01/20 05:11:35;;;;;;;;;;;21.60;30.60;;;;;;458918;260;1178;-46
2022/01/20 05:13:37;;;;;;;;;;;21.70;30.60;;;;;;458696;260;2175;-46
2022/01/20 05:15:36;;;;;;;;;;;21.70;30.50;;;;;;458578;260;2303;-46
2022/01/20 05:17:37;;;;;;;;;;;21.80;30.60;;;;;;458825;260;2201;-46
2022/01/20 05:19:38;;;;;;;;;;;21.80;30.50;;;;;;459247;260;1107;-46
2022/01/20 05:21:40;;;;;;;;;;;21.80;30.50;;;;;;458801;260;1286;-46
2022/01/20 05:23:41;;;;;;;;;;;21.80;30.40;;;;;;459118;260;1051;-46
2022/01/20 05:25:43;;;;;;;;;;;21.90;30.40;;;;;;458757;260;1117;-46
2022/01/20 05:27:44;;;;;;;;;;;21.90;30.30;;;;;;458788;260;1054;-46
2022/01/20 05:29:45;;;;;;;;;;;21.90;30.30;;;;;;458781;260;1070;-46
2022/01/20 05:31:47;;;;;;;;;;;22.00;30.40;;;;;;458694;259;1475;-46
2022/01/20 05:33:48;;;;;;;;;;;22.00;30.30;;;;;;458928;260;1101;-46
2022/01/20 05:35:49;;;;;;;;;;;22.00;30.30;;;;;;459005;260;1180;-46
2022/01/20 05:37:51;;;;;;;;;;;22.00;30.30;;;;;;458902;260;2213;-46
2022/01/20 05:39:52;;;;;;;;;;;22.00;30.20;;;;;;458784;260;1086;-46
2022/01/20 05:41:53;;;;;;;;;;;22.00;30.20;;;;;;458721;260;1410;-46
2022/01/20 05:43:56;;;;;;;;;;;22.10;30.20;;;;;;458726;260;1054;-46
2022/01/20 05:45:56;;;;;;;;;;;22.10;30.20;;;;;;458584;259;2170;-46
2022/01/20 05:48:08;;;;;;;;;;;22.10;30.20;;;;;;458734;260;1398;-46
2022/01/20 05:50:01;;;;;;;;;;;22.10;30.10;;;;;;458241;259;2257;-46
2022/01/20 05:52:03;;;;;;;;;;;22.20;30.10;;;;;;458632;260;1293;-46
2022/01/20 05:54:04;;;;;;;;;;;22.20;30.10;;;;;;458727;260;1157;-46
2022/01/20 05:56:05;;;;;;;;;;;22.20;30.10;;;;;;458705;260;1221;-46
2022/01/20 05:58:07;;;;;;;;;;;22.20;30.10;;;;;;458796;260;2163;-46
2022/01/20 06:00:08;;;;;;;;;;;22.20;30.00;;;;;;459109;260;1058;-46
2022/01/20 06:02:13;;;;;;;;;;;22.30;30.10;;;;;;458740;260;1223;-46
2022/01/20 06:04:12;;;;;;;;;;;22.20;30.00;;;;;;458501;259;2277;-46
2022/01/20 06:06:13;;;;;;;;;;;22.20;30.00;;;;;;458588;260;1099;-46
2022/01/20 06:08:15;;;;;;;;;;;22.30;30.00;;;;;;458773;260;1201;-46
2022/01/20 06:10:16;;;;;;;;;;;22.30;30.00;;;;;;458587;260;1049;-46
2022/01/20 06:12:17;;;;;;;;;;;22.30;30.00;;;;;;458542;260;1100;-46
2022/01/20 06:14:19;;;;;;;;;;;22.30;30.00;;;;;;458575;260;1117;-46
2022/01/20 06:16:20;;;;;;;;;;;22.30;30.00;;;;;;458419;260;1255;-46
2022/01/20 06:18:21;;;;;;;;;;;22.30;30.00;;;;;;458641;260;2130;-46
2022/01/20 06:20:23;;;;;;;;;;;22.30;30.00;;;;;;458579;260;1191;-46
2022/01/20 06:22:24;;;;;;;;;;;22.40;30.00;;;;;;458553;260;1162;-46
2022/01/20 06:24:25;;;;;;;;;;;22.30;30.00;;;;;;458605;260;1089;-46
2022/01/20 06:26:27;;;;;;;;;;;22.30;30.00;;;;;;458711;260;1062;-46
2022/01/20 06:28:28;;;;;;;;;;;22.40;30.00;;;;;;458609;260;1352;-46
2022/01/20 06:30:29;;;;;;;;;;;22.40;30.00;;;;;;458579;260;1072;-46
2022/01/20 06:32:30;;;;;;;;;;;22.40;30.00;;;;;;458544;260;1200;-46
2022/01/20 06:34:32;;;;;;;;;;;22.40;30.00;;;;;;458609;260;1191;-46
2022/01/20 06:36:33;;;;;;;;;;;22.40;30.00;;;;;;458491;260;1225;-46
2022/01/20 06:38:34;;;;;;;;;;;22.40;30.00;;;;;;458550;260;2209;-46
2022/01/20 06:40:36;;;;;;;;;;;22.40;30.00;;;;;;458509;260;1216;-46
2022/01/20 06:42:37;;;;;;;;;;;22.40;30.00;;;;;;458509;260;1204;-45
2022/01/20 06:44:39;;;;;;;;;;;22.40;30.00;;;;;;458686;260;1131;-46
2022/01/20 06:46:40;;;;;;;;;;;22.40;30.00;;;;;;458644;260;1175;-46
2022/01/20 06:48:41;;;;;;;;;;;22.50;30.00;;;;;;458593;260;1299;-46
2022/01/20 06:50:43;;;;;;;;;;;22.40;30.00;;;;;;458882;260;1032;-46
2022/01/20 06:52:44;;;;;;;;;;;22.40;30.00;;;;;;458446;260;1716;-46
2022/01/20 06:54:45;;;;;;;;;;;22.50;30.00;;;;;;458695;260;1093;-46
2022/01/20 06:56:47;;;;;;;;;;;22.50;30.00;;;;;;458548;260;1348;-46
2022/01/20 06:58:48;;;;;;;;;;;22.50;30.00;;;;;;458412;260;2354;-46
2022/01/20 07:00:49;;;;;;;;;;;22.50;30.00;;;;;;458545;260;1351;-46
2022/01/20 07:02:51;;;;;;;;;;;22.50;30.00;;;;;;458409;260;1223;-46
2022/01/20 07:04:52;;;;;;;;;;;22.50;30.00;;;;;;458481;260;1077;-46
2022/01/20 07:06:53;;;;;;;;;;;22.60;30.00;;;;;;458382;260;1342;-46
2022/01/20 07:08:55;;;;;;;;;;;22.50;29.90;;;;;;458561;260;1089;-46
2022/01/20 07:10:56;;;;;;;;;;;22.60;30.00;;;;;;458621;260;1360;-46
2022/01/20 07:12:58;;;;;;;;;;;22.60;30.00;;;;;;458394;260;1210;-45
2022/01/20 07:14:59;;;;;;;;;;;22.60;29.90;;;;;;458420;260;1190;-46
2022/01/20 07:17:00;;;;;;;;;;;22.60;29.90;;;;;;458208;260;1392;-45
2022/01/20 07:19:02;;;;;;;;;;;22.60;29.90;;;;;;458411;260;2154;-46
2022/01/20 07:21:03;;;;;;;;;;;22.60;29.80;;;;;;458317;260;1175;-46
2022/01/20 07:23:04;;;;;;;;;;;22.60;29.80;;;;;;458297;260;1865;-46
2022/01/20 07:25:05;;;;;;;;;;;22.60;29.80;;;;;;458382;260;1390;-45
2022/01/20 07:27:08;;;;;;;;;;;22.60;29.80;;;;;;458269;260;1171;-46
2022/01/20 07:29:08;;;;;;;;;;;22.60;29.70;;;;;;458288;260;2234;-46
2022/01/20 07:31:09;;;;;;;;;;;22.60;29.70;;;;;;458207;260;1432;-46
2022/01/20 07:33:11;;;;;;;;;;;22.60;29.80;;;;;;458209;260;1279;-46
2022/01/20 07:35:12;;;;;;;;;;;22.60;29.70;;;;;;458250;260;1176;-46
2022/01/20 07:37:14;;;;;;;;;;;22.70;29.70;;;;;;458256;260;1612;-46
2022/01/20 07:39:15;;;;;;;;;;;22.70;29.80;;;;;;458036;260;2197;-46
2022/01/20 07:41:16;;;;;;;;;;;22.70;29.70;;;;;;458240;260;1069;-46
2022/01/20 07:43:18;;;;;;;;;;;22.70;29.70;;;;;;458122;260;1125;-46
2022/01/20 07:45:21;;;;;;;;;;;22.70;29.80;;;;;;458103;260;2040;-46
2022/01/20 07:47:20;;;;;;;;;;;22.70;29.70;;;;;;457776;259;2320;-46
2022/01/20 07:49:22;;;;;;;;;;;22.70;29.80;;;;;;458087;260;1192;-46
2022/01/20 07:51:23;;;;;;;;;;;22.70;29.70;;;;;;458170;260;1256;-45
2022/01/20 07:53:24;;;;;;;;;;;22.70;29.70;;;;;;458175;260;1203;-46
2022/01/20 07:55:26;;;;;;;;;;;22.70;29.70;;;;;;458141;260;1122;-46
2022/01/20 07:57:27;;;;;;;;;;;22.80;29.70;;;;;;458138;260;1235;-46
2022/01/20 07:59:29;;;;;;;;;;;22.70;29.70;;;;;;458182;260;2127;-46
2022/01/20 08:01:30;;;;;;;;;;;22.80;29.70;;;;;;458039;260;1282;-46
2022/01/20 08:03:31;;;;;;;;;;;22.70;29.70;;;;;;458102;260;1135;-45
2022/01/20 08:05:32;;;;;;;;;;;22.70;29.60;;;;;;458172;260;1129;-46
2022/01/20 08:07:34;;;;;;;;;;;22.80;29.70;;;;;;458190;260;1207;-46
2022/01/20 08:09:35;;;;;;;;;;;22.80;29.60;;;;;;458208;260;1142;-45
2022/01/20 08:11:36;;;;;;;;;;;22.80;29.70;;;;;;457993;260;1264;-46
2022/01/20 08:13:38;;;;;;;;;;;22.80;29.60;;;;;;458166;260;1101;-46
2022/01/20 08:15:39;;;;;;;;;;;22.80;29.60;;;;;;458131;260;1387;-46
2022/01/20 08:17:40;;;;;;;;;;;22.80;29.70;;;;;;450616;264;1372;-46
2022/01/20 08:19:42;;;;;;;;;;;22.80;29.60;;;;;;459234;259;2274;-46
2022/01/20 08:21:43;;;;;;;;;;;22.80;29.70;;;;;;458061;258;1347;-46
2022/01/20 08:23:44;;;;;;;;;;;22.80;29.60;;;;;;458018;260;1248;-46
2022/01/20 08:25:46;;;;;;;;;;;22.80;29.60;;;;;;457953;260;1367;-46
2022/01/20 08:27:47;;;;;;;;;;;22.80;29.60;;;;;;457961;260;1198;-46
2022/01/20 08:29:48;;;;;;;;;;;22.80;29.60;;;;;;458090;260;1099;-46
2022/01/20 08:31:50;;;;;;;;;;;22.80;29.60;;;;;;457927;260;1239;-46
2022/01/20 08:33:51;;;;;;;;;;;22.80;29.60;;;;;;458037;260;1272;-45
2022/01/20 08:35:52;;;;;;;;;;;22.90;29.60;;;;;;458064;260;1143;-46
2022/01/20 08:37:53;;;;;;;;;;;22.80;29.60;;;;;;458035;260;1246;-46
2022/01/20 08:39:55;;;;;;;;;;;22.80;29.60;;;;;;458087;260;2205;-45
2022/01/20 08:41:57;;;;;;;;;;;22.80;29.60;;;;;;458198;260;1182;-46
2022/01/20 08:43:57;;;;;;;;;;;22.90;29.60;;;;;;458256;260;2067;-46
2022/01/20 08:45:59;;;;;;;;;;;22.80;29.60;;;;;;457836;260;1241;-46
2022/01/20 08:48:00;;;;;;;;;;;22.80;29.60;;;;;;458705;260;1060;-46
2022/01/20 08:50:01;;;;;;;;;;;22.90;29.60;;;;;;458066;260;1258;-46
2022/01/20 08:52:03;;;;;;;;;;;22.90;29.60;;;;;;457942;260;1336;-46
2022/01/20 08:54:04;;;;;;;;;;;22.90;29.60;;;;;;458192;260;1337;-46
2022/01/20 08:56:05;;;;;;;;;;;22.90;29.60;;;;;;458149;260;1697;-46
2022/01/20 08:58:07;;;;;;;;;;;22.90;29.60;;;;;;458196;260;2206;-47
2022/01/20 09:00:08;;;;;;;;;;;22.90;29.50;;;;;;458058;260;1229;-46
2022/01/20 09:02:10;;;;;;;;;;;22.90;29.50;;;;;;458176;260;1373;-46
2022/01/20 09:04:11;;;;;;;;;;;22.90;29.50;;;;;;458161;260;1209;-46
2022/01/20 09:06:12;;;;;;;;;;;22.90;29.50;;;;;;458157;260;1345;-46
2022/01/20 09:08:14;;;;;;;;;;;22.90;29.50;;;;;;458384;260;1464;-46
2022/01/20 09:10:19;;;;;;;;;;;22.90;29.50;;;;;;458285;260;1105;-46
2022/01/20 09:15:27;;;;;;;;;;;22.90;29.50;;;;;;457844;259;2167;-46
2022/01/20 09:16:39;;;;;;;;;;;22.90;29.60;;;;;;450467;264;1733;-46
2022/01/20 09:18:41;;;;;;;;;;;22.90;29.50;;;;;;450265;264;2143;-46
2022/01/20 09:20:42;;;;;;;;;;;22.90;29.50;;;;;;450589;264;2318;-46
2022/01/20 09:22:43;;;;;;;;;;;22.90;29.50;;;;;;450111;264;1266;-46
2022/01/20 09:24:45;;;;;;;;;;;22.90;29.50;;;;;;457987;260;1263;-46
2022/01/20 09:26:46;;;;;;;;;;;22.90;29.50;;;;;;450155;264;2135;-45
2022/01/20 09:28:47;;;;;;;;;;;22.90;29.50;;;;;;450335;264;1257;-46
2022/01/20 09:30:49;;;;;;;;;;;22.90;29.60;;;;;;450291;264;1360;-46
2022/01/20 09:32:58;;;;;;;;;;;22.90;29.60;;;;;;458075;259;2415;-46
2022/01/20 09:34:56;;;;;;;;;;;22.80;29.70;;;;;;450123;264;2299;-45
2022/01/20 09:36:57;;;;;;;;;;;22.60;30.00;;;;;;450179;264;1423;-46
2022/01/20 09:38:58;;;;;;;;;;;22.40;30.20;;;;;;449668;264;2214;-45
2022/01/20 09:41:00;;;;;;;;;;;22.20;30.50;;;;;;459037;259;1883;-46
2022/01/20 09:43:01;;;;;;;;;;;22.10;30.70;;;;;;458091;259;1348;-46
2022/01/20 09:45:02;;;;;;;;;;;22.00;30.90;;;;;;458194;260;1134;-45
2022/01/20 09:47:04;;;;;;;;;;;21.90;31.00;;;;;;458354;260;1179;-46
2022/01/20 09:49:05;;;;;;;;;;;21.80;31.00;;;;;;457912;260;1156;-46
2022/01/20 09:51:09;;;;;;;;;;;21.80;31.10;;;;;;457977;260;1414;-46
2022/01/20 09:53:08;;;;;;;;;;;21.70;31.10;;;;;;458038;259;2165;-46
2022/01/20 09:55:09;;;;;;;;;;;21.70;31.10;;;;;;458095;260;1206;-46
2022/01/20 09:57:10;;;;;;;;;;;21.70;31.20;;;;;;458214;260;1375;-46
2022/01/20 09:59:12;;;;;;;;;;;21.70;31.20;;;;;;457913;260;2221;-46
2022/01/20 10:01:15;;;;;;;;;;;21.70;31.20;;;;;;457790;260;1187;-46
2022/01/20 10:03:14;;;;;;;;;;;21.60;31.30;;;;;;458460;259;2253;-46
2022/01/20 10:05:15;;;;;;;;;;;21.60;31.40;;;;;;458156;260;1146;-45
2022/01/20 10:07:18;;;;;;;;;;;21.50;31.40;;;;;;458060;260;1567;-46
2022/01/20 10:09:18;;;;;;;;;;;21.50;31.50;;;;;;458070;260;2196;-46
2022/01/20 10:11:19;;;;;;;;;;;21.50;31.40;;;;;;458045;260;1280;-46
2022/01/20 10:13:21;;;;;;;;;;;21.40;31.50;;;;;;457964;260;1173;-46
2022/01/20 10:15:24;;;;;;;;;;;21.40;31.50;;;;;;458047;260;1064;-46
2022/01/20 10:17:23;;;;;;;;;;;21.40;31.60;;;;;;458020;260;2119;-46
2022/01/20 10:19:26;;;;;;;;;;;21.40;31.60;;;;;;458127;260;2143;-46
2022/01/20 10:21:26;;;;;;;;;;;21.40;31.60;;;;;;458010;259;2167;-46
2022/01/20 10:23:27;;;;;;;;;;;21.40;31.60;;;;;;458200;260;1242;-46
2022/01/20 10:25:29;;;;;;;;;;;21.40;31.60;;;;;;458144;260;1469;-46
2022/01/20 10:27:30;;;;;;;;;;;21.40;31.60;;;;;;458000;260;1254;-46
2022/01/20 10:29:32;;;;;;;;;;;21.40;31.70;;;;;;458389;260;1225;-46
2022/01/20 10:31:33;;;;;;;;;;;21.30;31.60;;;;;;458091;260;1370;-45
2022/01/20 10:33:34;;;;;;;;;;;21.30;31.60;;;;;;458423;260;1106;-45
2022/01/20 10:35:38;;;;;;;;;;;21.20;31.70;;;;;;458007;260;1349;-46
2022/01/20 10:37:37;;;;;;;;;;;21.30;31.70;;;;;;458248;259;2317;-46
2022/01/20 10:39:38;;;;;;;;;;;21.20;31.70;;;;;;458595;260;2206;-46
2022/01/20 10:41:40;;;;;;;;;;;21.20;31.80;;;;;;458143;260;1228;-46
2022/01/20 10:43:41;;;;;;;;;;;21.20;31.80;;;;;;458134;260;1305;-46
2022/01/20 10:45:42;;;;;;;;;;;21.20;31.70;;;;;;458017;260;1121;-46
2022/01/20 10:47:44;;;;;;;;;;;21.20;31.80;;;;;;457963;260;1325;-46
2022/01/20 10:49:45;;;;;;;;;;;21.20;31.80;;;;;;450614;264;1121;-46
2022/01/20 10:51:46;;;;;;;;;;;21.20;31.80;;;;;;458974;259;1459;-46
2022/01/20 10:53:48;;;;;;;;;;;21.10;31.80;;;;;;458018;258;1362;-46
2022/01/20 10:55:49;;;;;;;;;;;21.20;31.90;;;;;;457882;260;1225;-46
2022/01/20 10:57:50;;;;;;;;;;;21.20;31.80;;;;;;458055;260;1328;-46
2022/01/20 10:59:52;;;;;;;;;;;21.10;31.80;;;;;;458538;260;2205;-45
2022/01/20 11:01:53;;;;;;;;;;;21.10;31.80;;;;;;457596;260;1282;-46
2022/01/20 11:03:54;;;;;;;;;;;21.10;31.80;;;;;;457797;260;1413;-46
2022/01/20 11:05:58;;;;;;;;;;;21.10;31.80;;;;;;458099;260;1130;-46
2022/01/20 11:07:57;;;;;;;;;;;21.10;31.80;;;;;;457911;260;2315;-45
2022/01/20 11:10:02;;;;;;;;;;;21.10;31.80;;;;;;458182;260;1228;-46
2022/01/20 11:12:01;;;;;;;;;;;21.10;31.70;;;;;;457908;259;2002;-45
2022/01/20 11:14:02;;;;;;;;;;;21.10;31.80;;;;;;458175;260;1069;-46
2022/01/20 11:16:06;;;;;;;;;;;21.10;31.80;;;;;;458078;260;1139;-46
2022/01/20 11:18:08;;;;;;;;;;;21.10;31.80;;;;;;458060;260;1272;-46
2022/01/20 11:20:09;;;;;;;;;;;21.10;31.80;;;;;;458151;260;2198;-45
2022/01/20 11:22:11;;;;;;;;;;;21.10;31.80;;;;;;458040;259;1248;-46
2022/01/20 11:24:12;;;;;;;;;;;21.10;31.70;;;;;;458038;260;2197;-46
2022/01/20 11:26:13;;;;;;;;;;;21.10;31.60;;;;;;458074;260;1260;-45
2022/01/20 11:28:14;;;;;;;;;;;21.10;31.60;;;;;;457470;260;1354;-46
2022/01/20 11:30:16;;;;;;;;;;;21.10;31.70;;;;;;457776;260;1095;-46
2022/01/20 11:32:17;;;;;;;;;;;21.10;31.60;;;;;;457965;260;1280;-46
2022/01/20 11:34:19;;;;;;;;;;;21.10;31.60;;;;;;457965;260;1167;-46
2022/01/20 11:36:20;;;;;;;;;;;21.10;31.50;;;;;;458224;260;2041;-46
2022/01/20 11:38:21;;;;;;;;;;;21.10;31.50;;;;;;458362;260;1088;-46
2022/01/20 11:40:23;;;;;;;;;;;21.10;31.50;;;;;;458287;260;2206;-46
2022/01/20 11:42:25;;;;;;;;;;;21.10;31.50;;;;;;458212;260;1149;-46
2022/01/20 11:44:27;;;;;;;;;;;21.20;31.50;;;;;;458020;259;2313;-45
2022/01/20 11:46:28;;;;;;;;;;;21.20;31.40;;;;;;457947;260;1246;-46
2022/01/20 11:48:29;;;;;;;;;;;21.10;31.40;;;;;;458148;260;1233;-45
2022/01/20 11:50:31;;;;;;;;;;;21.20;31.40;;;;;;458182;260;1128;-45
2022/01/20 11:52:32;;;;;;;;;;;21.20;31.30;;;;;;458263;260;1225;-46
2022/01/20 11:54:33;;;;;;;;;;;21.20;31.30;;;;;;458052;260;1136;-46
2022/01/20 11:56:35;;;;;;;;;;;21.20;31.30;;;;;;458205;259;1378;-45
2022/01/20 11:58:36;;;;;;;;;;;21.20;31.30;;;;;;458117;260;1270;-45
2022/01/20 12:00:37;;;;;;;;;;;21.20;31.20;;;;;;458240;260;2201;-46
2022/01/20 12:02:39;;;;;;;;;;;21.20;31.30;;;;;;458184;260;1246;-45
2022/01/20 12:04:40;;;;;;;;;;;21.20;31.20;;;;;;458109;260;1255;-45
2022/01/20 12:06:44;;;;;;;;;;;21.20;31.20;;;;;;457973;260;1381;-46
2022/01/20 12:08:44;;;;;;;;;;;21.30;31.20;;;;;;458023;259;2248;-46
2022/01/20 12:10:45;;;;;;;;;;;21.30;31.20;;;;;;458087;260;1235;-46
2022/01/20 12:12:46;;;;;;;;;;;21.20;31.10;;;;;;458029;260;1340;-46
2022/01/20 12:14:48;;;;;;;;;;;21.20;31.20;;;;;;458023;260;1150;-46
2022/01/20 12:16:49;;;;;;;;;;;21.20;31.20;;;;;;457963;260;1242;-46
2022/01/20 12:18:50;;;;;;;;;;;21.30;31.20;;;;;;458012;260;1126;-46
2022/01/20 12:20:52;;;;;;;;;;;21.20;31.20;;;;;;457928;260;2225;-45
2022/01/20 12:22:53;;;;;;;;;;;21.20;31.10;;;;;;457969;260;1154;-46
2022/01/20 12:24:54;;;;;;;;;;;21.20;31.10;;;;;;458253;260;1258;-46
2022/01/20 12:26:56;;;;;;;;;;;21.20;31.10;;;;;;458109;260;1219;-45
2022/01/20 12:28:57;;;;;;;;;;;21.20;31.10;;;;;;458235;260;1098;-46
2022/01/20 12:30:58;;;;;;;;;;;21.20;31.10;;;;;;458137;260;1296;-46
2022/01/20 12:33:00;;;;;;;;;;;21.30;31.10;;;;;;450624;264;1069;-46
2022/01/20 12:35:01;;;;;;;;;;;21.30;31.10;;;;;;450256;264;1121;-46
2022/01/20 12:37:02;;;;;;;;;;;21.30;31.10;;;;;;450207;264;1200;-46
2022/01/20 12:39:04;;;;;;;;;;;21.30;31.10;;;;;;458887;259;1100;-46
2022/01/20 12:41:05;;;;;;;;;;;21.30;31.00;;;;;;458037;258;2147;-46